Terminal Aerodrome Forecast
Issued by NWS Amarillo, TX

Home | Current Version | Previous Version | Text Only | Print | Product List | Glossary On
Versions: 1 2 3 4 5 6 7 8 9 10 11 12 13 14 15 16 17
000
FTUS44 KAMA 271120
TAFGUY
TAF
KGUY 271120Z 2712/2812 18006KT P6SM FEW060 BKN200
     FM271800 12006KT P6SM SCT080
     FM280400 18005KT P6SM BKN090=

USA.gov is the U.S. government's official web portal to all federal, state and local government web resources and services.